Graham, TX

7:41 AM CST on February 24, 2017 (GMT -0600)
Graham

Weather History for KRPH - February, 2013

Change the Weather History Date:

Wednesday, February 27, 2013

  Actual Average (KMWL) Record (KMWL)
Temperature  
Mean Temperature 43 °F -  
Max Temperature 54 °F 58 °F 86 °F (2007)
Min Temperature 32 °F 37 °F 15 °F (2002)
Degree Days  
Heating Degree Days 22    
Moisture  
Dew Point 27 °F    
Average Humidity 60    
Maximum Humidity 92    
Minimum Humidity 24    
Precipitation  
Precipitation 0.00 in - - ()
Sea Level Pressure  
Sea Level Pressure 30.11 in    
Wind  
Wind Speed 10 mph (NNW)    
Max Wind Speed 24 mph    
Max Gust Speed 32 mph    
Visibility 10 miles    
Events      
Averages and records for this station are not official NWS values.
T = Trace of Precipitation, MM = Missing Value Source: NWS Daily Summary

Daily Weather History Graph

Daily Weather History Graph

Search for Another Location

Airport or City:

Trip Planner

Search our weather history database for the weather conditions in past years. The results will help you decide how hot, cold, wet, or windy it might be!

Date:

Astronomy

Feb. 27, 2013 Rise Set
Actual Time 7:04 AM CST 6:29 PM CST
Civil Twilight 6:39 AM CST 6:54 PM CST
Nautical Twilight 6:10 AM CST 7:23 PM CST
Astronomical Twilight 5:42 AM CST 7:52 PM CST
Moon 8:42 PM CST (2/27) 7:49 AM CST (2/27)
Length of Visible Light 12h 15m
Length of Day
11h 25m
Waning Gibbous, 96% of the Moon is Illuminated
Feb 27
Waning Gibbous
Mar 4
Last Quarter
Mar 11
New
Mar 19
First Quarter
Mar 27
Full

Hourly Weather History & Observations

Time (CST) Temp. Windchill Dew Point Humidity Pressure Visibility Wind Dir Wind Speed Gust Speed Precip Events Conditions
12:15 AM 41.0 °F 37.1 °F 31.1 °F 68% 29.88 in 10.0 mi NE 5.8 mph - N/A   Clear
12:35 AM 40.3 °F 36.3 °F 31.1 °F 70% 29.87 in 10.0 mi NE 5.8 mph - N/A   Clear
12:55 AM 39.0 °F 34.0 °F 31.1 °F 73% 29.88 in 10.0 mi North 6.9 mph - N/A   Clear
1:15 AM 37.9 °F 32.7 °F 31.3 °F 77% 29.90 in 10.0 mi NNW 6.9 mph - N/A   Clear
1:35 AM 36.5 °F 30.3 °F 31.5 °F 82% 29.91 in 10.0 mi North 8.1 mph - N/A   Clear
1:55 AM 36.5 °F 31.8 °F 31.1 °F 81% 29.91 in 10.0 mi North 5.8 mph - N/A   Clear
2:15 AM 36.1 °F 29.9 °F 30.9 °F 81% 29.92 in 10.0 mi North 8.1 mph - N/A   Clear
2:35 AM 35.8 °F 30.9 °F 30.7 °F 82% 29.91 in 10.0 mi NNE 5.8 mph - N/A   Clear
2:55 AM 34.7 °F 27.5 °F 30.6 °F 85% 29.93 in 10.0 mi North 9.2 mph - N/A   Clear
3:15 AM 34.7 °F 27.5 °F 30.7 °F 85% 29.95 in 10.0 mi North 9.2 mph - N/A   Clear
3:35 AM 33.8 °F 25.3 °F 31.1 °F 90% 29.96 in 10.0 mi NNW 11.5 mph - N/A   Clear
3:55 AM 33.8 °F 25.8 °F 31.6 °F 92% 29.96 in 10.0 mi North 10.4 mph - N/A   Clear
4:15 AM 33.4 °F 24.3 °F 31.1 °F 91% 29.98 in 10.0 mi NNW 12.7 mph - N/A   Clear
4:35 AM 33.3 °F 28.9 °F 30.6 °F 90% 29.99 in 10.0 mi North 4.6 mph - N/A   Scattered Clouds
4:55 AM 33.1 °F 28.7 °F 30.6 °F 90% 29.99 in 10.0 mi North 4.6 mph - N/A   Mostly Cloudy
5:15 AM 32.9 °F 26.7 °F 30.6 °F 91% 30.01 in 10.0 mi NNW 6.9 mph - N/A   Mostly Cloudy
5:35 AM 33.3 °F 27.1 °F 30.7 °F 90% 30.03 in 10.0 mi NNW 6.9 mph - N/A   Overcast
5:55 AM 33.6 °F 27.5 °F 30.7 °F 89% 30.03 in 10.0 mi NNW 6.9 mph - N/A   Overcast
6:15 AM 33.8 °F 28.6 °F 30.4 °F 87% 30.04 in 10.0 mi NW 5.8 mph - N/A   Mostly Cloudy
6:55 AM 33.8 °F 27.0 °F 30.7 °F 89% 30.06 in 10.0 mi NW 8.1 mph - N/A   Overcast
7:15 AM 33.4 °F 27.3 °F 29.8 °F 87% 30.07 in 10.0 mi NW 6.9 mph - N/A   Scattered Clouds
7:35 AM 33.4 °F 27.3 °F 29.3 °F 85% 30.09 in 10.0 mi WNW 6.9 mph - N/A   Clear
7:55 AM 34.7 °F 29.6 °F 29.1 °F 80% 30.10 in 10.0 mi NW 5.8 mph - N/A   Clear
8:15 AM 36.3 °F 30.8 °F 28.9 °F 75% 30.12 in 10.0 mi NW 6.9 mph - N/A   Clear
8:35 AM 37.8 °F 30.7 °F 28.4 °F 69% 30.13 in 10.0 mi NW 10.4 mph - N/A   Clear
9:15 AM 40.8 °F 34.1 °F 27.5 °F 59% 30.15 in 10.0 mi NW 11.5 mph - N/A   Clear
9:35 AM 42.8 °F 37.0 °F 26.2 °F 52% 30.15 in 10.0 mi NW 10.4 mph 18.4 mph N/A   Clear
9:55 AM 43.7 °F 36.3 °F 23.5 °F 45% 30.17 in 10.0 mi NW 16.1 mph 24.2 mph N/A   Clear
10:15 AM 44.2 °F 37.3 °F 23.5 °F 44% 30.17 in 10.0 mi NW 15.0 mph 21.9 mph N/A   Clear
10:35 AM 45.1 °F 38.4 °F 22.8 °F 41% 30.18 in 10.0 mi WNW 15.0 mph - N/A   Clear
10:55 AM 45.9 °F 38.8 °F 21.6 °F 38% 30.17 in 10.0 mi WNW 17.3 mph 20.7 mph N/A   Clear
11:15 AM 48.2 °F - 24.6 °F 40% 30.18 in 10.0 mi WNW 13.8 mph 19.6 mph N/A   Clear
11:35 AM 48.6 °F - 25.3 °F 40% 30.18 in 10.0 mi NW 15.0 mph 20.7 mph N/A   Clear
11:55 AM 49.5 °F - 24.3 °F 37% 30.18 in 10.0 mi NW 17.3 mph 23.0 mph N/A   Clear
12:15 PM 50.0 °F - 23.4 °F 35% 30.18 in 10.0 mi WNW 18.4 mph 29.9 mph N/A   Clear
12:35 PM 51.1 °F - 22.6 °F 33% 30.18 in 10.0 mi WNW 15.0 mph 26.5 mph N/A   Clear
12:55 PM 52.3 °F - 23.2 °F 32% 30.17 in 10.0 mi WNW 17.3 mph 24.2 mph N/A   Clear
1:15 PM 52.5 °F - 20.8 °F 29% 30.17 in 10.0 mi NW 18.4 mph 28.8 mph N/A   Clear
1:35 PM 53.2 °F - 21.6 °F 29% 30.16 in 10.0 mi WNW 20.7 mph 26.5 mph N/A   Clear
1:55 PM 53.8 °F - 19.6 °F 26% 30.16 in 10.0 mi NW 18.4 mph 28.8 mph N/A   Clear
2:15 PM 53.2 °F - 19.8 °F 27% 30.16 in 10.0 mi NNW 18.4 mph 32.2 mph N/A   Clear
2:35 PM 54.3 °F - 19.8 °F 26% 30.16 in 10.0 mi NW 24.2 mph 32.2 mph N/A   Clear
2:55 PM 54.5 °F - 18.1 °F 24% 30.16 in 10.0 mi NNW 19.6 mph 31.1 mph N/A   Clear
3:15 PM 53.6 °F - 19.0 °F 26% 30.16 in 10.0 mi NNW 21.9 mph 31.1 mph N/A   Clear
3:35 PM 54.5 °F - 18.7 °F 25% 30.16 in 10.0 mi NW 17.3 mph 29.9 mph N/A   Clear
3:55 PM 54.1 °F - 19.9 °F 26% 30.16 in 10.0 mi NNW 18.4 mph 29.9 mph N/A   Clear
4:15 PM 53.6 °F - 20.1 °F 27% 30.16 in 10.0 mi NNW 23.0 mph 31.1 mph N/A   Clear
4:35 PM 53.1 °F - 21.7 °F 29% 30.17 in 10.0 mi NW 18.4 mph 31.1 mph N/A   Clear
4:55 PM 52.7 °F - 22.5 °F 31% 30.16 in 10.0 mi NNW 21.9 mph 27.6 mph N/A   Clear
5:15 PM 52.2 °F - 23.7 °F 33% 30.17 in 10.0 mi NNW 21.9 mph 28.8 mph N/A   Clear
5:35 PM 51.3 °F - 25.5 °F 37% 30.17 in 10.0 mi NNW 18.4 mph 24.2 mph N/A   Clear
5:55 PM 49.6 °F - 27.7 °F 43% 30.18 in 10.0 mi NNW 20.7 mph 25.3 mph N/A   Clear
6:15 PM 48.2 °F - 28.6 °F 47% 30.19 in 10.0 mi NNW 15.0 mph 20.7 mph N/A   Clear
6:35 PM 46.8 °F - 29.3 °F 51% 30.19 in 10.0 mi NNW 13.8 mph 17.3 mph N/A   Clear
6:55 PM 45.7 °F 39.8 °F 29.5 °F 53% 30.20 in 10.0 mi NNW 12.7 mph - N/A   Clear
7:15 PM 44.6 °F 39.7 °F 29.3 °F 55% 30.21 in 10.0 mi NNW 9.2 mph - N/A   Clear
7:35 PM 42.8 °F 39.3 °F 29.3 °F 59% 30.21 in 10.0 mi NNW 5.8 mph - N/A   Clear
7:55 PM 41.9 °F 39.0 °F 29.3 °F 61% 30.22 in 10.0 mi NNW 4.6 mph - N/A   Clear
8:15 PM 41.0 °F 39.0 °F 29.3 °F 63% 30.22 in 10.0 mi NNW 3.5 mph - N/A   Clear
8:35 PM 41.0 °F 39.0 °F 29.3 °F 63% 30.22 in 10.0 mi NNW 3.5 mph - N/A   Clear
8:55 PM 39.4 °F 37.2 °F 29.3 °F 67% 30.22 in 10.0 mi NNW 3.5 mph - N/A   Clear
9:15 PM 39.0 °F 35.7 °F 29.3 °F 68% 30.23 in 10.0 mi NNW 4.6 mph - N/A   Clear
9:35 PM 38.3 °F 33.9 °F 29.8 °F 72% 30.24 in 10.0 mi NW 5.8 mph - N/A   Clear
9:55 PM 37.6 °F 34.0 °F 29.8 °F 74% 30.25 in 10.0 mi NW 4.6 mph - N/A   Clear
10:15 PM 37.6 °F - 29.8 °F 74% 30.26 in 10.0 mi Calm Calm - N/A   Clear
10:35 PM 36.5 °F 32.7 °F 29.8 °F 77% 30.26 in 10.0 mi NNW 4.6 mph - N/A   Clear
10:55 PM 35.1 °F 31.0 °F 29.7 °F 81% 30.26 in 10.0 mi NNW 4.6 mph - N/A   Clear
11:15 PM 35.6 °F 32.8 °F 29.3 °F 78% 30.26 in 10.0 mi North 3.5 mph - N/A   Clear